Allouez, Wisconsin
Current Conditions -  °F | °C
As of 10:04 AM on Sunday 23 Nov 2014 (Local Time) from KGRB Reporting Station
Haze Haze  
Wind Chill:   Ceiling: 900
Heat Index:   Visibility: 3mi
Dew Point:   Wind: 10mph
Humidity: 93%   Direction: 180°S
Pressure: 29.6"   Gusts: NA
Location:  44.48°N, 88.02°W
Report Text: KGRB 231604Z 18009KT 3SM BR OVC009 09/08 A2960 RMK AO2 T00940083
Loading
Personal Weather Stations






























Interactive Weather Map New forecast layout! Learn more

10-Day Weather Forecast

Advertisements
Track Severe Weather on mobile